sensor_id;sensor_type;location;lat;lon;timestamp;temperature;humidity
52669;DHT22;59898;52.786;6.892;2023-04-08T00:00:31;6.30;99.90
52669;DHT22;59898;52.786;6.892;2023-04-08T00:03:51;6.30;99.90
52669;DHT22;59898;52.786;6.892;2023-04-08T00:07:12;6.30;99.90
52669;DHT22;59898;52.786;6.892;2023-04-08T00:10:33;6.20;99.90
52669;DHT22;59898;52.786;6.892;2023-04-08T00:13:53;6.20;99.90
52669;DHT22;59898;52.786;6.892;2023-04-08T00:17:14;6.20;99.90
52669;DHT22;59898;52.786;6.892;2023-04-08T00:20:36;6.10;99.90
52669;DHT22;59898;52.786;6.892;2023-04-08T00:23:56;6.10;99.90
52669;DHT22;59898;52.786;6.892;2023-04-08T00:27:17;6.00;99.90
52669;DHT22;59898;52.786;6.892;2023-04-08T00:30:38;6.00;99.90
52669;DHT22;59898;52.786;6.892;2023-04-08T00:33:59;6.00;99.90
52669;DHT22;59898;52.786;6.892;2023-04-08T00:37:19;6.00;99.90
52669;DHT22;59898;52.786;6.892;2023-04-08T00:40:40;6.00;99.90
52669;DHT22;59898;52.786;6.892;2023-04-08T00:44:01;6.00;99.90
52669;DHT22;59898;52.786;6.892;2023-04-08T00:47:22;6.00;99.90
52669;DHT22;59898;52.786;6.892;2023-04-08T00:50:44;6.00;99.90
52669;DHT22;59898;52.786;6.892;2023-04-08T00:54:06;6.00;99.90
52669;DHT22;59898;52.786;6.892;2023-04-08T00:57:27;6.00;99.90
52669;DHT22;59898;52.786;6.892;2023-04-08T01:00:58;6.00;99.90
52669;DHT22;59898;52.786;6.892;2023-04-08T01:08:17;6.00;99.90
52669;DHT22;59898;52.786;6.892;2023-04-08T01:11:43;5.90;99.90
52669;DHT22;59898;52.786;6.892;2023-04-08T01:15:06;6.00;99.90
52669;DHT22;59898;52.786;6.892;2023-04-08T01:18:28;5.90;99.90
52669;DHT22;59898;52.786;6.892;2023-04-08T01:21:50;5.90;99.90
52669;DHT22;59898;52.786;6.892;2023-04-08T01:25:19;5.80;99.90
52669;DHT22;59898;52.786;6.892;2023-04-08T01:28:41;5.80;99.90
52669;DHT22;59898;52.786;6.892;2023-04-08T01:32:03;5.80;99.90
52669;DHT22;59898;52.786;6.892;2023-04-08T01:35:27;5.70;99.90
52669;DHT22;59898;52.786;6.892;2023-04-08T01:38:48;5.60;99.90
52669;DHT22;59898;52.786;6.892;2023-04-08T01:42:10;5.60;99.90
52669;DHT22;59898;52.786;6.892;2023-04-08T01:45:32;5.50;99.90
52669;DHT22;59898;52.786;6.892;2023-04-08T01:48:55;5.80;99.90
52669;DHT22;59898;52.786;6.892;2023-04-08T01:52:19;5.30;99.90
52669;DHT22;59898;52.786;6.892;2023-04-08T01:55:42;5.30;99.90
52669;DHT22;59898;52.786;6.892;2023-04-08T01:59:07;5.20;99.90
52669;DHT22;59898;52.786;6.892;2023-04-08T02:02:30;5.30;99.90
52669;DHT22;59898;52.786;6.892;2023-04-08T02:05:52;5.20;99.90
52669;DHT22;59898;52.786;6.892;2023-04-08T02:09:12;5.20;99.90
52669;DHT22;59898;52.786;6.892;2023-04-08T02:12:33;5.20;99.90
52669;DHT22;59898;52.786;6.892;2023-04-08T02:16:05;5.10;99.90
52669;DHT22;59898;52.786;6.892;2023-04-08T02:19:44;5.00;99.90
52669;DHT22;59898;52.786;6.892;2023-04-08T02:23:12;5.10;99.90
52669;DHT22;59898;52.786;6.892;2023-04-08T02:26:35;5.10;99.90
52669;DHT22;59898;52.786;6.892;2023-04-08T02:29:56;5.20;99.90
52669;DHT22;59898;52.786;6.892;2023-04-08T02:33:20;5.20;99.90
52669;DHT22;59898;52.786;6.892;2023-04-08T02:36:41;5.20;99.90
52669;DHT22;59898;52.786;6.892;2023-04-08T02:40:22;5.10;99.90
52669;DHT22;59898;52.786;6.892;2023-04-08T02:43:43;4.90;99.90
52669;DHT22;59898;52.786;6.892;2023-04-08T02:47:04;4.90;99.90
52669;DHT22;59898;52.786;6.892;2023-04-08T02:50:24;5.00;99.90
52669;DHT22;59898;52.786;6.892;2023-04-08T02:53:45;4.90;99.90
52669;DHT22;59898;52.786;6.892;2023-04-08T02:57:06;4.80;99.90
52669;DHT22;59898;52.786;6.892;2023-04-08T03:00:26;4.90;99.90
52669;DHT22;59898;52.786;6.892;2023-04-08T03:03:47;4.90;99.90
52669;DHT22;59898;52.786;6.892;2023-04-08T03:07:08;4.80;99.90
52669;DHT22;59898;52.786;6.892;2023-04-08T03:10:29;4.90;99.90
52669;DHT22;59898;52.786;6.892;2023-04-08T03:13:49;4.70;99.90
52669;DHT22;59898;52.786;6.892;2023-04-08T03:17:10;4.60;99.90
52669;DHT22;59898;52.786;6.892;2023-04-08T03:20:31;4.50;99.90
52669;DHT22;59898;52.786;6.892;2023-04-08T03:23:51;4.50;99.90
52669;DHT22;59898;52.786;6.892;2023-04-08T03:27:12;4.50;99.90
52669;DHT22;59898;52.786;6.892;2023-04-08T03:30:33;4.50;99.90
52669;DHT22;59898;52.786;6.892;2023-04-08T03:33:54;4.40;99.90
52669;DHT22;59898;52.786;6.892;2023-04-08T03:37:15;4.40;99.90
52669;DHT22;59898;52.786;6.892;2023-04-08T03:40:36;4.40;99.90
52669;DHT22;59898;52.786;6.892;2023-04-08T03:43:57;4.30;99.90
52669;DHT22;59898;52.786;6.892;2023-04-08T03:47:17;4.30;99.90
52669;DHT22;59898;52.786;6.892;2023-04-08T03:50:38;4.30;99.90
52669;DHT22;59898;52.786;6.892;2023-04-08T03:53:59;4.20;99.90
52669;DHT22;59898;52.786;6.892;2023-04-08T03:57:19;4.20;99.90
52669;DHT22;59898;52.786;6.892;2023-04-08T04:00:40;4.60;99.90
52669;DHT22;59898;52.786;6.892;2023-04-08T04:04:01;4.10;99.90
52669;DHT22;59898;52.786;6.892;2023-04-08T04:07:21;4.10;99.90
52669;DHT22;59898;52.786;6.892;2023-04-08T04:10:42;4.10;99.90
52669;DHT22;59898;52.786;6.892;2023-04-08T04:14:03;4.40;99.90
52669;DHT22;59898;52.786;6.892;2023-04-08T04:17:23;4.20;99.90
52669;DHT22;59898;52.786;6.892;2023-04-08T04:20:44;4.20;99.90
52669;DHT22;59898;52.786;6.892;2023-04-08T04:24:05;4.10;99.90
52669;DHT22;59898;52.786;6.892;2023-04-08T04:27:25;4.20;99.90
52669;DHT22;59898;52.786;6.892;2023-04-08T04:30:46;4.20;99.90
52669;DHT22;59898;52.786;6.892;2023-04-08T04:34:07;4.10;99.90
52669;DHT22;59898;52.786;6.892;2023-04-08T04:37:27;4.10;99.90
52669;DHT22;59898;52.786;6.892;2023-04-08T04:40:48;4.10;99.90
52669;DHT22;59898;52.786;6.892;2023-04-08T04:44:09;4.10;99.90
52669;DHT22;59898;52.786;6.892;2023-04-08T04:47:29;4.10;99.90
52669;DHT22;59898;52.786;6.892;2023-04-08T04:50:55;4.20;99.90
52669;DHT22;59898;52.786;6.892;2023-04-08T04:54:16;4.30;99.90
52669;DHT22;59898;52.786;6.892;2023-04-08T04:57:37;4.20;99.90
52669;DHT22;59898;52.786;6.892;2023-04-08T05:00:57;4.20;99.90
52669;DHT22;59898;52.786;6.892;2023-04-08T05:04:18;4.30;99.90
52669;DHT22;59898;52.786;6.892;2023-04-08T05:07:39;4.30;99.90
52669;DHT22;59898;52.786;6.892;2023-04-08T05:11:00;4.30;99.90
52669;DHT22;59898;52.786;6.892;2023-04-08T05:14:21;4.50;99.90
52669;DHT22;59898;52.786;6.892;2023-04-08T05:17:42;4.40;99.90
52669;DHT22;59898;52.786;6.892;2023-04-08T05:21:03;4.60;99.90
52669;DHT22;59898;52.786;6.892;2023-04-08T05:24:24;4.50;99.90
52669;DHT22;59898;52.786;6.892;2023-04-08T05:27:45;4.50;99.90
52669;DHT22;59898;52.786;6.892;2023-04-08T05:31:06;4.50;99.90
52669;DHT22;59898;52.786;6.892;2023-04-08T05:34:27;4.40;99.90
52669;DHT22;59898;52.786;6.892;2023-04-08T05:37:47;4.40;99.90
52669;DHT22;59898;52.786;6.892;2023-04-08T05:41:08;4.40;99.90
52669;DHT22;59898;52.786;6.892;2023-04-08T05:44:29;4.50;99.90
52669;DHT22;59898;52.786;6.892;2023-04-08T05:47:49;4.50;99.90
52669;DHT22;59898;52.786;6.892;2023-04-08T05:51:14;4.60;99.90
52669;DHT22;59898;52.786;6.892;2023-04-08T05:54:35;4.70;99.90
52669;DHT22;59898;52.786;6.892;2023-04-08T05:57:56;4.70;99.90
52669;DHT22;59898;52.786;6.892;2023-04-08T06:01:16;4.70;99.90
52669;DHT22;59898;52.786;6.892;2023-04-08T06:04:37;4.80;99.90
52669;DHT22;59898;52.786;6.892;2023-04-08T06:07:58;4.80;99.90
52669;DHT22;59898;52.786;6.892;2023-04-08T06:11:18;4.80;99.90
52669;DHT22;59898;52.786;6.892;2023-04-08T06:14:39;5.40;99.90
52669;DHT22;59898;52.786;6.892;2023-04-08T06:18:00;5.00;99.90
52669;DHT22;59898;52.786;6.892;2023-04-08T06:21:21;5.10;99.90
52669;DHT22;59898;52.786;6.892;2023-04-08T06:24:41;5.10;99.90
52669;DHT22;59898;52.786;6.892;2023-04-08T06:28:02;5.10;99.90
52669;DHT22;59898;52.786;6.892;2023-04-08T06:31:23;5.10;99.90
52669;DHT22;59898;52.786;6.892;2023-04-08T06:34:44;5.20;99.90
52669;DHT22;59898;52.786;6.892;2023-04-08T06:38:05;5.30;99.90
52669;DHT22;59898;52.786;6.892;2023-04-08T06:41:26;5.40;99.90
52669;DHT22;59898;52.786;6.892;2023-04-08T06:44:46;5.60;99.90
52669;DHT22;59898;52.786;6.892;2023-04-08T06:48:07;5.90;99.90
52669;DHT22;59898;52.786;6.892;2023-04-08T06:51:28;6.20;99.90
52669;DHT22;59898;52.786;6.892;2023-04-08T06:54:50;6.40;99.90
52669;DHT22;59898;52.786;6.892;2023-04-08T06:58:11;6.30;99.90
52669;DHT22;59898;52.786;6.892;2023-04-08T07:01:32;6.40;99.90
52669;DHT22;59898;52.786;6.892;2023-04-08T07:04:52;6.50;99.90
52669;DHT22;59898;52.786;6.892;2023-04-08T07:08:13;6.50;99.90
52669;DHT22;59898;52.786;6.892;2023-04-08T07:11:34;6.40;99.90
52669;DHT22;59898;52.786;6.892;2023-04-08T07:14:54;6.40;99.90
52669;DHT22;59898;52.786;6.892;2023-04-08T07:18:15;6.50;99.90
52669;DHT22;59898;52.786;6.892;2023-04-08T07:21:36;6.70;99.90
52669;DHT22;59898;52.786;6.892;2023-04-08T07:24:56;6.90;99.90
52669;DHT22;59898;52.786;6.892;2023-04-08T07:28:17;7.10;99.90
52669;DHT22;59898;52.786;6.892;2023-04-08T07:31:38;7.30;99.90
52669;DHT22;59898;52.786;6.892;2023-04-08T07:34:59;7.60;99.90
52669;DHT22;59898;52.786;6.892;2023-04-08T07:38:20;7.80;99.90
52669;DHT22;59898;52.786;6.892;2023-04-08T07:41:41;7.90;99.90
52669;DHT22;59898;52.786;6.892;2023-04-08T07:45:01;8.00;99.90
52669;DHT22;59898;52.786;6.892;2023-04-08T07:48:22;8.00;99.90
52669;DHT22;59898;52.786;6.892;2023-04-08T07:51:43;8.30;99.90
52669;DHT22;59898;52.786;6.892;2023-04-08T07:55:04;8.60;99.90
52669;DHT22;59898;52.786;6.892;2023-04-08T07:58:25;8.70;99.90
52669;DHT22;59898;52.786;6.892;2023-04-08T08:01:46;8.60;99.90
52669;DHT22;59898;52.786;6.892;2023-04-08T08:05:07;8.60;99.90
52669;DHT22;59898;52.786;6.892;2023-04-08T08:08:28;8.40;99.90
52669;DHT22;59898;52.786;6.892;2023-04-08T08:11:48;8.40;99.90
52669;DHT22;59898;52.786;6.892;2023-04-08T08:15:09;8.50;99.90
52669;DHT22;59898;52.786;6.892;2023-04-08T08:18:30;8.70;99.90
52669;DHT22;59898;52.786;6.892;2023-04-08T08:21:51;9.00;99.90
52669;DHT22;59898;52.786;6.892;2023-04-08T08:25:11;9.10;99.90
52669;DHT22;59898;52.786;6.892;2023-04-08T08:28:33;9.20;99.90
52669;DHT22;59898;52.786;6.892;2023-04-08T08:31:53;9.30;99.90
52669;DHT22;59898;52.786;6.892;2023-04-08T08:35:14;9.40;99.90
52669;DHT22;59898;52.786;6.892;2023-04-08T08:38:35;9.20;99.90
52669;DHT22;59898;52.786;6.892;2023-04-08T08:41:55;8.90;99.90
52669;DHT22;59898;52.786;6.892;2023-04-08T08:45:18;9.00;99.90
52669;DHT22;59898;52.786;6.892;2023-04-08T08:48:39;9.10;99.90
52669;DHT22;59898;52.786;6.892;2023-04-08T08:52:00;9.10;99.90
52669;DHT22;59898;52.786;6.892;2023-04-08T08:55:21;9.00;99.90
52669;DHT22;59898;52.786;6.892;2023-04-08T08:58:42;9.00;99.90
52669;DHT22;59898;52.786;6.892;2023-04-08T09:02:25;9.00;99.90
52669;DHT22;59898;52.786;6.892;2023-04-08T09:06:03;9.10;99.90
52669;DHT22;59898;52.786;6.892;2023-04-08T09:09:24;9.40;99.90
52669;DHT22;59898;52.786;6.892;2023-04-08T09:12:54;9.40;99.90
52669;DHT22;59898;52.786;6.892;2023-04-08T09:16:17;9.30;99.90
52669;DHT22;59898;52.786;6.892;2023-04-08T09:19:38;9.00;99.90
52669;DHT22;59898;52.786;6.892;2023-04-08T09:22:59;8.80;99.90
52669;DHT22;59898;52.786;6.892;2023-04-08T09:26:22;8.70;99.90
52669;DHT22;59898;52.786;6.892;2023-04-08T09:29:46;8.80;99.90
52669;DHT22;59898;52.786;6.892;2023-04-08T09:33:08;8.90;99.90
52669;DHT22;59898;52.786;6.892;2023-04-08T09:36:28;9.00;99.90
52669;DHT22;59898;52.786;6.892;2023-04-08T09:39:49;8.80;99.90
52669;DHT22;59898;52.786;6.892;2023-04-08T09:43:12;8.80;99.90
52669;DHT22;59898;52.786;6.892;2023-04-08T09:50:11;8.80;99.90
52669;DHT22;59898;52.786;6.892;2023-04-08T09:53:37;8.70;99.90
52669;DHT22;59898;52.786;6.892;2023-04-08T09:57:04;8.80;99.90
52669;DHT22;59898;52.786;6.892;2023-04-08T10:00:41;8.90;99.90
52669;DHT22;59898;52.786;6.892;2023-04-08T10:04:10;8.90;99.90
52669;DHT22;59898;52.786;6.892;2023-04-08T10:07:33;8.80;99.90
52669;DHT22;59898;52.786;6.892;2023-04-08T10:10:54;8.80;99.90
52669;DHT22;59898;52.786;6.892;2023-04-08T10:14:15;8.80;99.90
52669;DHT22;59898;52.786;6.892;2023-04-08T10:17:36;8.70;99.90
52669;DHT22;59898;52.786;6.892;2023-04-08T10:20:57;8.60;99.90
52669;DHT22;59898;52.786;6.892;2023-04-08T10:24:17;8.50;99.90
52669;DHT22;59898;52.786;6.892;2023-04-08T10:27:44;8.60;99.90
52669;DHT22;59898;52.786;6.892;2023-04-08T10:31:05;8.60;99.90
52669;DHT22;59898;52.786;6.892;2023-04-08T10:34:26;8.70;99.90
52669;DHT22;59898;52.786;6.892;2023-04-08T10:37:47;8.80;99.90
52669;DHT22;59898;52.786;6.892;2023-04-08T10:41:11;8.90;99.90
52669;DHT22;59898;52.786;6.892;2023-04-08T10:44:33;9.00;99.90
52669;DHT22;59898;52.786;6.892;2023-04-08T10:47:54;9.00;99.90
52669;DHT22;59898;52.786;6.892;2023-04-08T10:51:15;9.10;99.90
52669;DHT22;59898;52.786;6.892;2023-04-08T10:54:36;9.30;99.90
52669;DHT22;59898;52.786;6.892;2023-04-08T10:58:08;9.30;99.90
52669;DHT22;59898;52.786;6.892;2023-04-08T11:01:37;9.40;99.90
52669;DHT22;59898;52.786;6.892;2023-04-08T11:05:01;9.50;99.90
52669;DHT22;59898;52.786;6.892;2023-04-08T11:08:30;9.30;99.90
52669;DHT22;59898;52.786;6.892;2023-04-08T11:11:51;9.20;99.90
52669;DHT22;59898;52.786;6.892;2023-04-08T11:15:13;9.20;99.90
52669;DHT22;59898;52.786;6.892;2023-04-08T11:18:37;9.20;99.90
52669;DHT22;59898;52.786;6.892;2023-04-08T11:21:58;9.20;99.90
52669;DHT22;59898;52.786;6.892;2023-04-08T11:25:19;9.40;99.90
52669;DHT22;59898;52.786;6.892;2023-04-08T11:28:40;9.50;99.90
52669;DHT22;59898;52.786;6.892;2023-04-08T11:32:01;9.40;99.90
52669;DHT22;59898;52.786;6.892;2023-04-08T11:35:22;9.40;99.90
52669;DHT22;59898;52.786;6.892;2023-04-08T11:38:43;9.40;99.90
52669;DHT22;59898;52.786;6.892;2023-04-08T11:42:04;9.50;99.90
52669;DHT22;59898;52.786;6.892;2023-04-08T11:45:24;9.50;99.90
52669;DHT22;59898;52.786;6.892;2023-04-08T11:49:17;9.60;99.90
52669;DHT22;59898;52.786;6.892;2023-04-08T11:52:49;9.60;99.90
52669;DHT22;59898;52.786;6.892;2023-04-08T11:56:21;9.60;99.90
52669;DHT22;59898;52.786;6.892;2023-04-08T11:59:42;9.60;99.90
52669;DHT22;59898;52.786;6.892;2023-04-08T12:03:03;9.60;99.90
52669;DHT22;59898;52.786;6.892;2023-04-08T12:06:26;9.50;99.90
52669;DHT22;59898;52.786;6.892;2023-04-08T12:09:47;9.40;99.90
52669;DHT22;59898;52.786;6.892;2023-04-08T12:13:08;9.20;99.90
52669;DHT22;59898;52.786;6.892;2023-04-08T12:16:28;9.10;99.90
52669;DHT22;59898;52.786;6.892;2023-04-08T12:19:49;9.10;99.90
52669;DHT22;59898;52.786;6.892;2023-04-08T12:23:10;9.20;99.90
52669;DHT22;59898;52.786;6.892;2023-04-08T12:26:31;9.20;99.90
52669;DHT22;59898;52.786;6.892;2023-04-08T12:29:51;9.30;99.90
52669;DHT22;59898;52.786;6.892;2023-04-08T12:33:12;9.40;99.90
52669;DHT22;59898;52.786;6.892;2023-04-08T12:36:33;9.40;99.90
52669;DHT22;59898;52.786;6.892;2023-04-08T12:39:54;9.40;99.90
52669;DHT22;59898;52.786;6.892;2023-04-08T12:43:14;9.50;99.90
52669;DHT22;59898;52.786;6.892;2023-04-08T12:46:35;9.50;99.90
52669;DHT22;59898;52.786;6.892;2023-04-08T12:49:56;9.50;99.90
52669;DHT22;59898;52.786;6.892;2023-04-08T12:53:17;9.50;99.90
52669;DHT22;59898;52.786;6.892;2023-04-08T12:56:37;9.40;99.90
52669;DHT22;59898;52.786;6.892;2023-04-08T12:59:58;9.30;99.90
52669;DHT22;59898;52.786;6.892;2023-04-08T13:03:19;9.40;99.90
52669;DHT22;59898;52.786;6.892;2023-04-08T13:06:40;9.40;99.90
52669;DHT22;59898;52.786;6.892;2023-04-08T13:10:01;9.50;99.90
52669;DHT22;59898;52.786;6.892;2023-04-08T13:13:23;9.60;99.90
52669;DHT22;59898;52.786;6.892;2023-04-08T13:16:43;9.70;99.90
52669;DHT22;59898;52.786;6.892;2023-04-08T13:20:05;9.80;99.90
52669;DHT22;59898;52.786;6.892;2023-04-08T13:23:26;9.80;99.90
52669;DHT22;59898;52.786;6.892;2023-04-08T13:26:46;9.70;99.90
52669;DHT22;59898;52.786;6.892;2023-04-08T13:30:08;9.60;99.90
52669;DHT22;59898;52.786;6.892;2023-04-08T13:33:28;9.60;99.90
52669;DHT22;59898;52.786;6.892;2023-04-08T13:36:49;9.60;99.90
52669;DHT22;59898;52.786;6.892;2023-04-08T13:40:10;9.50;99.90
52669;DHT22;59898;52.786;6.892;2023-04-08T13:43:31;9.50;99.90
52669;DHT22;59898;52.786;6.892;2023-04-08T13:46:52;9.50;99.90
52669;DHT22;59898;52.786;6.892;2023-04-08T13:50:13;9.60;99.90
52669;DHT22;59898;52.786;6.892;2023-04-08T13:53:33;9.60;99.90
52669;DHT22;59898;52.786;6.892;2023-04-08T13:56:54;9.70;99.90
52669;DHT22;59898;52.786;6.892;2023-04-08T14:00:15;9.80;99.90
52669;DHT22;59898;52.786;6.892;2023-04-08T14:03:36;9.90;99.90
52669;DHT22;59898;52.786;6.892;2023-04-08T14:06:56;10.00;99.90
52669;DHT22;59898;52.786;6.892;2023-04-08T14:10:17;10.10;99.90
52669;DHT22;59898;52.786;6.892;2023-04-08T14:13:38;10.20;99.90
52669;DHT22;59898;52.786;6.892;2023-04-08T14:16:58;10.20;99.90
52669;DHT22;59898;52.786;6.892;2023-04-08T14:20:20;10.20;99.90
52669;DHT22;59898;52.786;6.892;2023-04-08T14:23:41;10.10;99.90
52669;DHT22;59898;52.786;6.892;2023-04-08T14:27:02;10.00;99.90
52669;DHT22;59898;52.786;6.892;2023-04-08T14:30:23;10.00;99.90
52669;DHT22;59898;52.786;6.892;2023-04-08T14:33:43;10.00;99.90
52669;DHT22;59898;52.786;6.892;2023-04-08T14:37:04;10.10;99.90
52669;DHT22;59898;52.786;6.892;2023-04-08T14:40:25;10.10;99.90
52669;DHT22;59898;52.786;6.892;2023-04-08T14:43:46;10.10;99.90
52669;DHT22;59898;52.786;6.892;2023-04-08T14:47:06;10.10;99.90
52669;DHT22;59898;52.786;6.892;2023-04-08T14:50:28;10.10;99.90
52669;DHT22;59898;52.786;6.892;2023-04-08T14:53:49;10.10;99.90
52669;DHT22;59898;52.786;6.892;2023-04-08T14:57:10;10.20;99.90
52669;DHT22;59898;52.786;6.892;2023-04-08T15:00:31;10.30;99.90
52669;DHT22;59898;52.786;6.892;2023-04-08T15:03:52;10.20;99.90
52669;DHT22;59898;52.786;6.892;2023-04-08T15:07:12;10.20;99.90
52669;DHT22;59898;52.786;6.892;2023-04-08T15:10:34;10.20;99.90
52669;DHT22;59898;52.786;6.892;2023-04-08T15:13:55;10.30;99.90
52669;DHT22;59898;52.786;6.892;2023-04-08T15:17:15;10.30;99.90
52669;DHT22;59898;52.786;6.892;2023-04-08T15:20:36;10.30;99.90
52669;DHT22;59898;52.786;6.892;2023-04-08T15:23:57;10.20;99.90
52669;DHT22;59898;52.786;6.892;2023-04-08T15:27:17;10.20;99.90
52669;DHT22;59898;52.786;6.892;2023-04-08T15:30:39;10.10;99.90
52669;DHT22;59898;52.786;6.892;2023-04-08T15:33:59;10.10;99.90
52669;DHT22;59898;52.786;6.892;2023-04-08T15:37:22;10.20;99.90
52669;DHT22;59898;52.786;6.892;2023-04-08T15:40:42;10.20;99.90
52669;DHT22;59898;52.786;6.892;2023-04-08T15:44:03;10.20;99.90
52669;DHT22;59898;52.786;6.892;2023-04-08T15:47:24;10.20;99.90
52669;DHT22;59898;52.786;6.892;2023-04-08T15:50:44;10.20;99.90
52669;DHT22;59898;52.786;6.892;2023-04-08T15:54:05;10.10;99.90
52669;DHT22;59898;52.786;6.892;2023-04-08T15:57:26;10.10;99.90
52669;DHT22;59898;52.786;6.892;2023-04-08T16:00:47;10.10;99.90
52669;DHT22;59898;52.786;6.892;2023-04-08T16:04:08;10.10;99.90
52669;DHT22;59898;52.786;6.892;2023-04-08T16:07:28;10.00;99.90
52669;DHT22;59898;52.786;6.892;2023-04-08T16:10:50;10.10;99.90
52669;DHT22;59898;52.786;6.892;2023-04-08T16:14:10;10.10;99.90
52669;DHT22;59898;52.786;6.892;2023-04-08T16:17:31;10.10;99.90
52669;DHT22;59898;52.786;6.892;2023-04-08T16:20:52;10.00;99.90
52669;DHT22;59898;52.786;6.892;2023-04-08T16:24:13;10.00;99.90
52669;DHT22;59898;52.786;6.892;2023-04-08T16:27:33;10.00;99.90
52669;DHT22;59898;52.786;6.892;2023-04-08T16:30:56;10.00;99.90
52669;DHT22;59898;52.786;6.892;2023-04-08T16:34:17;10.10;99.90
52669;DHT22;59898;52.786;6.892;2023-04-08T16:37:38;10.10;99.90
52669;DHT22;59898;52.786;6.892;2023-04-08T16:40:59;10.20;99.90
52669;DHT22;59898;52.786;6.892;2023-04-08T16:44:19;10.20;99.90
52669;DHT22;59898;52.786;6.892;2023-04-08T16:47:40;10.20;99.90
52669;DHT22;59898;52.786;6.892;2023-04-08T16:51:04;10.10;99.90
52669;DHT22;59898;52.786;6.892;2023-04-08T16:54:25;10.10;99.90
52669;DHT22;59898;52.786;6.892;2023-04-08T16:57:45;10.10;99.90
52669;DHT22;59898;52.786;6.892;2023-04-08T17:01:10;10.10;99.90
52669;DHT22;59898;52.786;6.892;2023-04-08T17:04:33;10.20;99.90
52669;DHT22;59898;52.786;6.892;2023-04-08T17:07:57;10.20;99.90
52669;DHT22;59898;52.786;6.892;2023-04-08T17:11:17;10.10;99.90
52669;DHT22;59898;52.786;6.892;2023-04-08T17:14:38;10.10;99.90
52669;DHT22;59898;52.786;6.892;2023-04-08T17:17:59;10.10;99.90
52669;DHT22;59898;52.786;6.892;2023-04-08T17:21:20;10.10;99.90
52669;DHT22;59898;52.786;6.892;2023-04-08T17:24:41;10.00;99.90
52669;DHT22;59898;52.786;6.892;2023-04-08T17:28:01;10.00;99.90
52669;DHT22;59898;52.786;6.892;2023-04-08T17:31:22;10.00;99.90
52669;DHT22;59898;52.786;6.892;2023-04-08T17:34:43;10.10;99.90
52669;DHT22;59898;52.786;6.892;2023-04-08T17:38:04;10.10;99.90
52669;DHT22;59898;52.786;6.892;2023-04-08T17:41:25;10.10;99.90
52669;DHT22;59898;52.786;6.892;2023-04-08T17:44:45;10.10;99.90
52669;DHT22;59898;52.786;6.892;2023-04-08T17:48:06;10.10;99.90
52669;DHT22;59898;52.786;6.892;2023-04-08T17:51:27;10.10;99.90
52669;DHT22;59898;52.786;6.892;2023-04-08T17:54:49;10.10;99.90
52669;DHT22;59898;52.786;6.892;2023-04-08T17:58:10;10.10;99.90
52669;DHT22;59898;52.786;6.892;2023-04-08T18:01:30;10.20;99.90
52669;DHT22;59898;52.786;6.892;2023-04-08T18:04:51;10.20;99.90
52669;DHT22;59898;52.786;6.892;2023-04-08T18:08:12;10.20;99.90
52669;DHT22;59898;52.786;6.892;2023-04-08T18:11:33;10.20;99.90
52669;DHT22;59898;52.786;6.892;2023-04-08T18:14:53;10.20;99.90
52669;DHT22;59898;52.786;6.892;2023-04-08T18:18:14;10.10;99.90
52669;DHT22;59898;52.786;6.892;2023-04-08T18:21:38;10.10;99.90
52669;DHT22;59898;52.786;6.892;2023-04-08T18:24:59;10.10;99.90
52669;DHT22;59898;52.786;6.892;2023-04-08T18:28:20;10.10;99.90
52669;DHT22;59898;52.786;6.892;2023-04-08T18:31:42;10.10;99.90
52669;DHT22;59898;52.786;6.892;2023-04-08T18:35:03;10.10;99.90
52669;DHT22;59898;52.786;6.892;2023-04-08T18:38:23;10.10;99.90
52669;DHT22;59898;52.786;6.892;2023-04-08T18:41:45;10.10;99.90
52669;DHT22;59898;52.786;6.892;2023-04-08T18:45:06;10.10;99.90
52669;DHT22;59898;52.786;6.892;2023-04-08T18:48:26;10.10;99.90
52669;DHT22;59898;52.786;6.892;2023-04-08T18:51:47;10.10;99.90
52669;DHT22;59898;52.786;6.892;2023-04-08T18:55:08;10.10;99.90
52669;DHT22;59898;52.786;6.892;2023-04-08T18:58:29;10.10;99.90
52669;DHT22;59898;52.786;6.892;2023-04-08T19:01:50;10.10;99.90
52669;DHT22;59898;52.786;6.892;2023-04-08T19:05:11;10.10;99.90
52669;DHT22;59898;52.786;6.892;2023-04-08T19:08:32;10.00;99.90
52669;DHT22;59898;52.786;6.892;2023-04-08T19:11:53;10.00;99.90
52669;DHT22;59898;52.786;6.892;2023-04-08T19:15:16;10.00;99.90
52669;DHT22;59898;52.786;6.892;2023-04-08T19:18:37;10.00;99.90
52669;DHT22;59898;52.786;6.892;2023-04-08T19:21:58;10.00;99.90
52669;DHT22;59898;52.786;6.892;2023-04-08T19:25:22;9.90;99.90
52669;DHT22;59898;52.786;6.892;2023-04-08T19:28:42;9.90;99.90
52669;DHT22;59898;52.786;6.892;2023-04-08T19:32:03;9.90;99.90
52669;DHT22;59898;52.786;6.892;2023-04-08T19:35:24;9.90;99.90
52669;DHT22;59898;52.786;6.892;2023-04-08T19:38:44;9.90;99.90
52669;DHT22;59898;52.786;6.892;2023-04-08T19:42:05;9.90;99.90
52669;DHT22;59898;52.786;6.892;2023-04-08T19:45:26;9.80;99.90
52669;DHT22;59898;52.786;6.892;2023-04-08T19:48:47;9.80;99.90
52669;DHT22;59898;52.786;6.892;2023-04-08T19:52:07;9.80;99.90
52669;DHT22;59898;52.786;6.892;2023-04-08T19:55:28;9.80;99.90
52669;DHT22;59898;52.786;6.892;2023-04-08T19:58:49;9.80;99.90
52669;DHT22;59898;52.786;6.892;2023-04-08T20:02:10;9.80;99.90
52669;DHT22;59898;52.786;6.892;2023-04-08T20:05:30;9.70;99.90
52669;DHT22;59898;52.786;6.892;2023-04-08T20:08:51;9.80;99.90
52669;DHT22;59898;52.786;6.892;2023-04-08T20:12:12;9.70;99.90
52669;DHT22;59898;52.786;6.892;2023-04-08T20:15:33;9.70;99.90
52669;DHT22;59898;52.786;6.892;2023-04-08T20:18:53;9.60;99.90
52669;DHT22;59898;52.786;6.892;2023-04-08T20:22:14;9.70;99.90
52669;DHT22;59898;52.786;6.892;2023-04-08T20:25:35;9.70;99.90
52669;DHT22;59898;52.786;6.892;2023-04-08T20:28:56;9.60;99.90
52669;DHT22;59898;52.786;6.892;2023-04-08T20:32:17;9.60;99.90
52669;DHT22;59898;52.786;6.892;2023-04-08T20:35:38;9.50;99.90
52669;DHT22;59898;52.786;6.892;2023-04-08T20:38:59;9.50;99.90
52669;DHT22;59898;52.786;6.892;2023-04-08T20:42:19;9.40;99.90
52669;DHT22;59898;52.786;6.892;2023-04-08T20:45:40;9.40;99.90
52669;DHT22;59898;52.786;6.892;2023-04-08T20:49:04;9.40;99.90
52669;DHT22;59898;52.786;6.892;2023-04-08T20:52:25;9.40;99.90
52669;DHT22;59898;52.786;6.892;2023-04-08T20:55:46;9.40;99.90
52669;DHT22;59898;52.786;6.892;2023-04-08T20:59:06;9.40;99.90
52669;DHT22;59898;52.786;6.892;2023-04-08T21:02:27;9.30;99.90
52669;DHT22;59898;52.786;6.892;2023-04-08T21:05:48;9.30;99.90
52669;DHT22;59898;52.786;6.892;2023-04-08T21:09:09;9.30;99.90
52669;DHT22;59898;52.786;6.892;2023-04-08T21:12:30;9.20;99.90
52669;DHT22;59898;52.786;6.892;2023-04-08T21:15:51;9.20;99.90
52669;DHT22;59898;52.786;6.892;2023-04-08T21:19:12;9.10;99.90
52669;DHT22;59898;52.786;6.892;2023-04-08T21:22:32;9.10;99.90
52669;DHT22;59898;52.786;6.892;2023-04-08T21:25:53;9.10;99.90
52669;DHT22;59898;52.786;6.892;2023-04-08T21:29:14;9.10;99.90
52669;DHT22;59898;52.786;6.892;2023-04-08T21:32:35;9.00;99.90
52669;DHT22;59898;52.786;6.892;2023-04-08T21:35:56;9.00;99.90